Time;durP1;ratioP1;P1;durP2;ratioP2;P2;SDS_P1;SDS_P2;PMS_P1;PMS_P2;Temp;Humidity;BMP_temperature;BMP_pressure;BME280_temperature;BME280_humidity;BME280_pressure;Samples;Min_cycle;Max_cycle;Signal;HPM_P1;HPM_P2
2022/01/22 00:01:53;;;;;;;;;;;21.80;44.50;;;;;;5135718;27;19972;-44
2022/01/22 00:04:20;;;;;;;;;;;21.80;44.50;;;;;;5135269;27;19923;-42
2022/01/22 00:06:47;;;;;;;;;;;21.80;44.50;;;;;;5136104;27;20314;-46
2022/01/22 00:09:38;;;;;;;;;;;21.80;44.50;;;;;;5134745;27;19923;-41
2022/01/22 00:12:07;;;;;;;;;;;21.80;44.50;;;;;;5136188;27;19927;-40
2022/01/22 00:14:34;;;;;;;;;;;21.80;44.50;;;;;;5135636;27;19949;-41
2022/01/22 00:17:02;;;;;;;;;;;21.80;44.50;;;;;;5135219;27;19928;-41
2022/01/22 00:19:29;;;;;;;;;;;21.80;44.50;;;;;;5135046;27;19946;-41
2022/01/22 00:21:56;;;;;;;;;;;21.80;44.50;;;;;;5135450;27;19928;-42
2022/01/22 00:24:23;;;;;;;;;;;21.80;44.50;;;;;;5134474;27;19924;-40
2022/01/22 00:26:50;;;;;;;;;;;21.80;44.50;;;;;;5136312;27;19923;-42
2022/01/22 00:29:17;;;;;;;;;;;21.80;44.50;;;;;;5117612;27;19949;-42
2022/01/22 00:31:44;;;;;;;;;;;21.80;44.50;;;;;;5135450;27;20370;-43
2022/01/22 00:34:11;;;;;;;;;;;21.80;44.50;;;;;;5135438;27;20362;-40
2022/01/22 00:36:39;;;;;;;;;;;21.80;44.50;;;;;;5134911;27;20014;-40
2022/01/22 00:39:06;;;;;;;;;;;21.80;44.50;;;;;;5134547;27;19944;-39
2022/01/22 00:41:33;;;;;;;;;;;21.80;44.50;;;;;;5135289;27;19946;-40
2022/01/22 00:44:01;;;;;;;;;;;21.80;44.40;;;;;;5135453;27;19972;-41
2022/01/22 00:46:28;;;;;;;;;;;21.80;45.10;;;;;;5135450;27;20282;-39
2022/01/22 00:48:55;;;;;;;;;;;21.80;44.40;;;;;;5135152;27;19974;-39
2022/01/22 00:51:22;;;;;;;;;;;21.80;44.40;;;;;;5134388;27;20406;-43
2022/01/22 00:53:49;;;;;;;;;;;21.80;44.50;;;;;;5133694;27;20382;-40
2022/01/22 00:56:16;;;;;;;;;;;21.80;44.50;;;;;;5135054;27;19972;-40
2022/01/22 00:58:43;;;;;;;;;;;21.80;44.40;;;;;;5135338;27;20340;-41
2022/01/22 01:01:10;;;;;;;;;;;21.80;44.50;;;;;;5116221;27;19966;-42
2022/01/22 01:03:37;;;;;;;;;;;21.80;44.50;;;;;;5135258;27;19996;-43
2022/01/22 01:06:04;;;;;;;;;;;21.80;44.50;;;;;;5124802;27;19977;-40
2022/01/22 01:08:34;;;;;;;;;;;21.80;44.50;;;;;;5114265;28;19924;-41
2022/01/22 01:11:01;;;;;;;;;;;21.80;44.50;;;;;;5133051;27;20003;-42
2022/01/22 01:13:32;;;;;;;;;;;21.80;44.50;;;;;;5135138;27;20329;-42
2022/01/22 01:16:15;;;;;;;;;;;21.80;44.50;;;;;;5134677;27;20382;-43
2022/01/22 01:33:01;;;;;;;;;;;21.80;45.10;;;;;;5055715;28;19928;-40
2022/01/22 01:35:30;;;;;;;;;;;21.80;44.50;;;;;;5054845;28;19925;-42
2022/01/22 01:37:59;;;;;;;;;;;21.70;44.40;;;;;;5055566;28;20020;-42
2022/01/22 01:40:28;;;;;;;;;;;21.70;44.60;;;;;;5054700;28;19928;-42
2022/01/22 01:45:26;;;;;;;;;;;21.70;44.40;;;;;;5055326;28;19951;-41
2022/01/22 01:47:54;;;;;;;;;;;21.70;44.40;;;;;;5055347;28;19964;-41
2022/01/22 01:50:21;;;;;;;;;;;21.70;44.50;;;;;;5055304;28;20396;-48
2022/01/22 01:53:02;;;;;;;;;;;21.70;44.40;;;;;;5054608;28;20404;-48
2022/01/22 01:55:47;;;;;;;;;;;21.70;44.40;;;;;;5054386;28;19971;-48
2022/01/22 01:58:15;;;;;;;;;;;21.70;44.40;;;;;;5055222;28;19925;-45
2022/01/22 02:00:42;;;;;;;;;;;21.70;44.40;;;;;;5069544;28;19928;-40
2022/01/22 02:03:12;;;;;;;;;;;21.70;44.40;;;;;;5118104;27;19924;-40
2022/01/22 02:05:40;;;;;;;;;;;21.70;44.40;;;;;;5117704;27;19924;-45
2022/01/22 02:08:07;;;;;;;;;;;21.70;44.50;;;;;;5118819;28;19981;-44
2022/01/22 02:10:39;;;;;;;;;;;21.70;44.50;;;;;;5127616;27;20386;-41
2022/01/22 02:24:14;;;;;;;;;;;21.70;44.50;;;;;;5138313;27;19951;-42
2022/01/22 02:26:46;;;;;;;;;;;21.70;44.50;;;;;;5137127;27;20327;-46
2022/01/22 02:29:13;;;;;;;;;;;21.70;44.50;;;;;;5138208;27;19976;-43
2022/01/22 02:31:57;;;;;;;;;;;21.70;44.50;;;;;;5137838;27;20453;-40
2022/01/22 02:34:37;;;;;;;;;;;21.70;44.50;;;;;;5138125;27;20267;-41
2022/01/22 02:37:11;;;;;;;;;;;21.60;44.40;;;;;;5137285;27;19924;-42
2022/01/22 02:39:47;;;;;;;;;;;21.60;44.50;;;;;;5136689;27;19967;-41
2022/01/22 02:42:14;;;;;;;;;;;21.60;44.50;;;;;;5117104;28;19967;-43
2022/01/22 02:44:46;;;;;;;;;;;21.60;44.50;;;;;;5116891;28;19946;-39
2022/01/22 02:47:15;;;;;;;;;;;21.60;44.50;;;;;;5117250;28;20260;-44
2022/01/22 02:49:42;;;;;;;;;;;21.60;44.50;;;;;;5116882;28;20015;-45
2022/01/22 02:52:10;;;;;;;;;;;21.60;44.50;;;;;;5125163;27;20359;-44
2022/01/22 02:54:37;;;;;;;;;;;21.60;44.50;;;;;;5137375;27;19927;-43
2022/01/22 02:57:04;;;;;;;;;;;21.60;44.50;;;;;;5136265;27;19927;-40
2022/01/22 02:59:31;;;;;;;;;;;21.60;44.50;;;;;;5137284;27;19964;-40
2022/01/22 03:02:00;;;;;;;;;;;21.60;44.50;;;;;;5137012;27;19923;-39
2022/01/22 03:04:27;;;;;;;;;;;21.60;44.50;;;;;;5137196;27;19927;-43
2022/01/22 03:06:53;;;;;;;;;;;21.60;44.50;;;;;;5136398;27;19923;-40
2022/01/22 03:09:28;;;;;;;;;;;21.60;44.50;;;;;;5119222;27;19969;-40
2022/01/22 03:20:00;;;;;;;;;;;21.60;44.60;;;;;;5136971;27;20301;-42
2022/01/22 03:28:01;;;;;;;;;;;21.60;44.60;;;;;;5136668;27;20458;-41
2022/01/22 03:30:28;;;;;;;;;;;21.50;44.50;;;;;;5136670;27;19923;-40
2022/01/22 03:32:56;;;;;;;;;;;21.50;44.50;;;;;;5136608;27;19966;-42
2022/01/22 03:35:26;;;;;;;;;;;21.50;45.10;;;;;;5136898;27;19962;-43
2022/01/22 03:37:55;;;;;;;;;;;21.50;44.50;;;;;;5136127;27;19924;-42
2022/01/22 03:40:24;;;;;;;;;;;21.50;44.50;;;;;;5135536;27;19923;-42
2022/01/22 03:42:52;;;;;;;;;;;21.50;44.50;;;;;;5115875;28;20375;-43
2022/01/22 03:45:21;;;;;;;;;;;21.50;44.50;;;;;;5115692;28;19924;-40
2022/01/22 03:47:47;;;;;;;;;;;21.50;44.50;;;;;;5115998;28;19977;-43
2022/01/22 03:50:15;;;;;;;;;;;21.50;44.60;;;;;;5116045;28;19923;-41
2022/01/22 03:52:42;;;;;;;;;;;21.50;44.50;;;;;;5122592;27;19984;-46
2022/01/22 03:55:15;;;;;;;;;;;21.50;44.60;;;;;;5136478;27;19924;-40
2022/01/22 03:57:43;;;;;;;;;;;21.50;44.60;;;;;;5135293;27;19924;-40
2022/01/22 04:00:10;;;;;;;;;;;21.50;44.60;;;;;;5136397;27;19923;-42
2022/01/22 04:05:12;;;;;;;;;;;21.50;44.60;;;;;;5136375;27;19927;-41
2022/01/22 04:10:25;;;;;;;;;;;21.50;44.60;;;;;;5115698;28;20013;-40
2022/01/22 04:15:23;;;;;;;;;;;21.50;44.60;;;;;;5135987;27;19923;-40
2022/01/22 04:28:42;;;;;;;;;;;21.50;44.60;;;;;;5135504;27;20383;-41
2022/01/22 04:31:09;;;;;;;;;;;21.50;44.60;;;;;;5135500;27;19972;-42
2022/01/22 04:33:36;;;;;;;;;;;21.50;44.60;;;;;;5135462;27;20491;-42
2022/01/22 04:36:03;;;;;;;;;;;21.50;44.60;;;;;;5118120;27;19928;-42
2022/01/22 04:38:30;;;;;;;;;;;21.50;44.60;;;;;;5134566;27;19924;-45
2022/01/22 04:40:59;;;;;;;;;;;21.50;44.60;;;;;;5134955;27;19928;-42
2022/01/22 04:43:27;;;;;;;;;;;21.50;44.60;;;;;;5114554;28;19924;-44
2022/01/22 04:48:51;;;;;;;;;;;21.50;44.60;;;;;;5114564;28;19977;-40
2022/01/22 04:56:50;;;;;;;;;;;21.50;44.70;;;;;;5133952;27;20386;-43
2022/01/22 04:59:17;;;;;;;;;;;21.50;44.60;;;;;;5135353;27;19935;-44
2022/01/22 05:01:44;;;;;;;;;;;21.50;44.60;;;;;;5134432;27;19930;-46
2022/01/22 05:04:11;;;;;;;;;;;21.40;44.50;;;;;;5134515;27;19923;-40
2022/01/22 05:06:38;;;;;;;;;;;21.40;44.50;;;;;;5134883;27;19923;-41
2022/01/22 05:09:05;;;;;;;;;;;21.40;44.50;;;;;;5134089;27;19924;-40
2022/01/22 05:11:32;;;;;;;;;;;21.50;44.60;;;;;;5134056;27;20005;-40
2022/01/22 05:13:59;;;;;;;;;;;21.50;44.60;;;;;;5134720;27;19978;-43
2022/01/22 05:16:26;;;;;;;;;;;21.40;44.50;;;;;;5135099;27;19923;-41
2022/01/22 05:19:01;;;;;;;;;;;21.40;44.50;;;;;;5135057;27;19924;-43
2022/01/22 05:21:31;;;;;;;;;;;21.50;44.60;;;;;;5118218;28;20352;-41
2022/01/22 05:24:02;;;;;;;;;;;21.40;44.50;;;;;;5133942;27;19927;-40
2022/01/22 05:37:05;;;;;;;;;;;21.40;44.50;;;;;;5134890;28;19948;-41
2022/01/22 05:39:33;;;;;;;;;;;21.40;44.60;;;;;;5133820;28;19976;-43
2022/01/22 05:42:01;;;;;;;;;;;21.40;44.50;;;;;;5133405;28;20014;-39
2022/01/22 05:44:31;;;;;;;;;;;21.40;44.50;;;;;;5134382;28;19972;-41
2022/01/22 05:47:04;;;;;;;;;;;21.40;44.50;;;;;;5134490;28;19931;-40
2022/01/22 05:49:35;;;;;;;;;;;21.40;44.50;;;;;;5134428;28;19924;-41
2022/01/22 05:52:04;;;;;;;;;;;21.40;44.50;;;;;;5134586;28;19951;-42
2022/01/22 05:59:56;;;;;;;;;;;21.40;44.50;;;;;;5134410;28;19924;-43
2022/01/22 06:02:23;;;;;;;;;;;21.40;44.50;;;;;;5134110;28;19923;-41
2022/01/22 06:04:50;;;;;;;;;;;21.40;44.60;;;;;;5134295;28;19968;-42
2022/01/22 06:07:17;;;;;;;;;;;21.40;44.60;;;;;;5134639;28;19923;-45
2022/01/22 06:09:55;;;;;;;;;;;21.40;44.50;;;;;;5121692;28;20362;-41
2022/01/22 06:15:06;;;;;;;;;;;21.40;44.50;;;;;;5135272;27;19923;-39
2022/01/22 06:17:34;;;;;;;;;;;21.40;44.60;;;;;;5138249;27;20009;-42
2022/01/22 06:20:00;;;;;;;;;;;21.40;44.60;;;;;;5137939;27;19923;-40
2022/01/22 06:22:27;;;;;;;;;;;21.40;44.60;;;;;;5138170;27;20018;-42
2022/01/22 06:24:55;;;;;;;;;;;21.40;44.60;;;;;;5137560;27;20346;-41
2022/01/22 06:27:22;;;;;;;;;;;21.40;44.60;;;;;;5137210;27;19930;-41
2022/01/22 06:29:49;;;;;;;;;;;21.40;44.60;;;;;;5137839;27;20022;-40
2022/01/22 06:32:16;;;;;;;;;;;21.40;44.60;;;;;;5138195;27;19923;-41
2022/01/22 06:34:43;;;;;;;;;;;21.40;44.60;;;;;;5138094;27;19968;-45
2022/01/22 06:37:10;;;;;;;;;;;21.40;44.60;;;;;;5137741;27;20013;-40
2022/01/22 06:42:25;;;;;;;;;;;21.40;44.60;;;;;;5136768;27;20431;-42
2022/01/22 06:44:52;;;;;;;;;;;21.40;44.60;;;;;;5137781;27;19954;-40
2022/01/22 06:47:19;;;;;;;;;;;21.40;44.60;;;;;;5119684;27;19923;-40
2022/01/22 06:49:46;;;;;;;;;;;21.40;44.60;;;;;;5137737;27;20353;-42
2022/01/22 06:52:13;;;;;;;;;;;21.40;44.60;;;;;;5137285;27;19967;-40
2022/01/22 06:54:42;;;;;;;;;;;21.40;44.60;;;;;;5136925;27;19973;-43
2022/01/22 06:57:09;;;;;;;;;;;21.40;44.60;;;;;;5137652;27;19954;-40
2022/01/22 06:59:36;;;;;;;;;;;21.40;44.60;;;;;;5118444;27;19927;-41
2022/01/22 07:02:03;;;;;;;;;;;21.40;44.60;;;;;;5137021;27;20355;-40
2022/01/22 07:04:36;;;;;;;;;;;21.40;45.20;;;;;;5137212;27;20019;-40
2022/01/22 07:07:04;;;;;;;;;;;21.40;44.60;;;;;;5137212;27;19924;-41
2022/01/22 07:09:32;;;;;;;;;;;21.30;44.50;;;;;;5136357;27;19927;-41
2022/01/22 07:11:59;;;;;;;;;;;21.30;44.50;;;;;;5137329;27;19995;-40
2022/01/22 07:14:26;;;;;;;;;;;21.40;44.60;;;;;;5135845;27;19949;-42
2022/01/22 07:16:53;;;;;;;;;;;21.40;44.60;;;;;;5136949;27;19928;-44
2022/01/22 07:19:21;;;;;;;;;;;21.40;44.60;;;;;;5136999;27;19976;-40
2022/01/22 07:21:57;;;;;;;;;;;21.30;44.50;;;;;;5136721;27;20371;-40
2022/01/22 07:24:26;;;;;;;;;;;21.40;44.60;;;;;;5136113;27;19971;-42
2022/01/22 07:26:53;;;;;;;;;;;21.30;44.50;;;;;;5136733;27;19962;-43
2022/01/22 07:29:21;;;;;;;;;;;21.30;44.50;;;;;;5135629;27;19977;-41
2022/01/22 07:31:48;;;;;;;;;;;21.30;44.50;;;;;;5136685;27;19948;-41
2022/01/22 07:34:15;;;;;;;;;;;21.30;44.50;;;;;;5137313;27;19924;-40
2022/01/22 07:36:42;;;;;;;;;;;21.30;44.50;;;;;;5136906;27;19927;-43
2022/01/22 07:39:09;;;;;;;;;;;21.30;44.50;;;;;;5136533;27;19923;-41
2022/01/22 07:41:37;;;;;;;;;;;21.30;44.50;;;;;;5116537;27;19977;-40
2022/01/22 07:44:04;;;;;;;;;;;21.30;44.50;;;;;;5124320;27;19962;-41
2022/01/22 07:46:31;;;;;;;;;;;21.30;44.50;;;;;;5136376;27;20017;-42
2022/01/22 07:48:58;;;;;;;;;;;21.30;44.50;;;;;;5136526;27;19970;-39
2022/01/22 07:51:25;;;;;;;;;;;21.30;44.50;;;;;;5136274;27;19923;-40
2022/01/22 07:53:52;;;;;;;;;;;21.30;44.50;;;;;;5136048;27;20371;-41
2022/01/22 07:56:19;;;;;;;;;;;21.30;44.50;;;;;;5121073;27;19930;-41
2022/01/22 07:58:46;;;;;;;;;;;21.30;44.50;;;;;;5120666;27;19963;-40
2022/01/22 08:01:13;;;;;;;;;;;21.30;44.50;;;;;;5136120;27;19923;-40
2022/01/22 08:03:41;;;;;;;;;;;21.30;44.50;;;;;;5136637;27;20273;-41
2022/01/22 08:06:08;;;;;;;;;;;21.30;44.50;;;;;;5136039;27;19931;-41
2022/01/22 08:08:37;;;;;;;;;;;21.30;44.50;;;;;;5136126;27;19923;-40
2022/01/22 08:11:04;;;;;;;;;;;21.30;44.50;;;;;;5135082;27;19976;-43
2022/01/22 08:13:31;;;;;;;;;;;21.30;44.50;;;;;;5134438;27;19924;-40
2022/01/22 08:15:58;;;;;;;;;;;21.30;44.50;;;;;;5135807;27;19928;-44
2022/01/22 08:18:25;;;;;;;;;;;21.30;44.50;;;;;;5135582;27;20018;-41
2022/01/22 08:20:52;;;;;;;;;;;21.30;44.50;;;;;;5135566;27;19927;-40
2022/01/22 08:23:20;;;;;;;;;;;21.30;44.50;;;;;;5135446;27;19980;-41
2022/01/22 08:25:48;;;;;;;;;;;21.30;44.50;;;;;;5127907;27;19924;-40
2022/01/22 08:31:16;;;;;;;;;;;21.30;44.50;;;;;;5115046;28;19924;-40
2022/01/22 08:36:29;;;;;;;;;;;21.30;44.50;;;;;;5114946;28;19928;-40
2022/01/22 08:38:56;;;;;;;;;;;21.30;44.50;;;;;;5114327;28;19924;-43
2022/01/22 08:41:23;;;;;;;;;;;21.30;44.50;;;;;;5114118;28;19924;-45
2022/01/22 08:43:50;;;;;;;;;;;21.30;44.50;;;;;;5115625;27;19924;-41
2022/01/22 08:46:17;;;;;;;;;;;21.30;44.40;;;;;;5135605;27;19927;-43
2022/01/22 08:48:45;;;;;;;;;;;21.30;44.40;;;;;;5135091;27;19962;-41
2022/01/22 08:51:12;;;;;;;;;;;21.40;44.50;;;;;;5135488;27;20351;-41
2022/01/22 08:53:47;;;;;;;;;;;21.40;44.40;;;;;;5135330;27;20282;-40
2022/01/22 08:56:15;;;;;;;;;;;21.40;44.40;;;;;;5125765;27;19924;-40
2022/01/22 08:58:43;;;;;;;;;;;21.40;44.40;;;;;;5114477;28;19978;-40
2022/01/22 09:01:11;;;;;;;;;;;21.40;44.40;;;;;;5133449;27;19963;-39
2022/01/22 09:03:38;;;;;;;;;;;21.40;44.30;;;;;;5135014;27;19923;-40
2022/01/22 09:06:06;;;;;;;;;;;21.40;44.30;;;;;;5134948;27;19967;-40
2022/01/22 09:08:33;;;;;;;;;;;21.40;44.30;;;;;;5134805;27;19955;-41
2022/01/22 09:11:00;;;;;;;;;;;21.40;44.30;;;;;;5134130;27;20321;-48
2022/01/22 09:13:28;;;;;;;;;;;21.40;44.30;;;;;;5134728;27;19977;-47
2022/01/22 09:15:55;;;;;;;;;;;21.40;44.20;;;;;;5134040;27;19976;-47
2022/01/22 09:18:22;;;;;;;;;;;21.40;44.20;;;;;;5134739;27;19973;-41
2022/01/22 09:23:17;;;;;;;;;;;21.40;44.20;;;;;;5134500;27;20383;-41
2022/01/22 09:25:45;;;;;;;;;;;21.40;44.20;;;;;;5134031;27;20375;-46
2022/01/22 09:28:13;;;;;;;;;;;21.50;44.20;;;;;;5134658;27;19923;-41
2022/01/22 09:30:41;;;;;;;;;;;21.50;44.20;;;;;;5133559;28;20292;-41
2022/01/22 09:33:08;;;;;;;;;;;21.50;44.20;;;;;;5134972;28;19927;-40
2022/01/22 09:35:35;;;;;;;;;;;21.50;44.10;;;;;;5135756;28;19976;-46
2022/01/22 09:38:02;;;;;;;;;;;21.50;44.10;;;;;;5134832;28;20410;-47
2022/01/22 09:40:29;;;;;;;;;;;21.50;44.10;;;;;;5134856;28;20010;-42
2022/01/22 09:42:59;;;;;;;;;;;21.50;44.10;;;;;;5134112;28;19927;-43
2022/01/22 09:45:27;;;;;;;;;;;21.50;44.10;;;;;;5133574;28;19976;-43
2022/01/22 09:47:55;;;;;;;;;;;21.50;44.10;;;;;;5134501;28;19924;-43
2022/01/22 09:50:23;;;;;;;;;;;21.50;44.00;;;;;;5137414;27;19968;-39
2022/01/22 09:52:50;;;;;;;;;;;21.50;44.00;;;;;;5138417;27;19931;-42
2022/01/22 09:55:17;;;;;;;;;;;21.60;44.00;;;;;;5138586;27;20379;-42
2022/01/22 09:57:45;;;;;;;;;;;21.60;44.00;;;;;;5137735;27;19924;-42
2022/01/22 10:00:13;;;;;;;;;;;21.60;44.00;;;;;;5137928;27;19927;-40
2022/01/22 10:02:40;;;;;;;;;;;21.60;44.00;;;;;;5138215;27;19980;-42
2022/01/22 10:05:31;;;;;;;;;;;21.60;43.90;;;;;;5138416;27;20390;-41
2022/01/22 10:08:16;;;;;;;;;;;21.60;43.90;;;;;;5127786;27;19970;-43
2022/01/22 10:10:43;;;;;;;;;;;21.60;43.90;;;;;;5138217;27;19923;-40
2022/01/22 10:13:10;;;;;;;;;;;21.60;43.90;;;;;;5137531;27;19927;-40
2022/01/22 10:15:39;;;;;;;;;;;21.60;43.80;;;;;;5137353;27;19980;-42
2022/01/22 10:18:07;;;;;;;;;;;21.60;43.80;;;;;;5138204;27;19992;-42
2022/01/22 10:20:36;;;;;;;;;;;21.70;43.80;;;;;;5138220;27;19973;-40
2022/01/22 10:23:04;;;;;;;;;;;21.70;43.80;;;;;;5137851;27;20394;-40
2022/01/22 10:25:39;;;;;;;;;;;21.70;43.80;;;;;;5138022;27;20302;-43
2022/01/22 10:28:20;;;;;;;;;;;21.70;43.70;;;;;;5136992;27;20335;-40
2022/01/22 10:30:51;;;;;;;;;;;21.70;43.70;;;;;;5137068;27;19966;-40
2022/01/22 10:33:30;;;;;;;;;;;21.70;43.70;;;;;;5137897;27;19924;-41
2022/01/22 10:36:18;;;;;;;;;;;21.70;43.60;;;;;;5138184;27;20279;-42
2022/01/22 10:38:45;;;;;;;;;;;21.80;43.70;;;;;;5137798;27;19931;-40
2022/01/22 10:41:14;;;;;;;;;;;21.80;44.20;;;;;;5137669;27;19923;-40
2022/01/22 10:43:51;;;;;;;;;;;21.80;43.60;;;;;;5117241;27;19963;-42
2022/01/22 10:46:20;;;;;;;;;;;21.80;43.60;;;;;;5128484;27;19969;-41
2022/01/22 10:49:04;;;;;;;;;;;21.80;43.60;;;;;;5137554;27;20382;-41
2022/01/22 10:51:42;;;;;;;;;;;21.80;43.50;;;;;;5137573;27;20018;-42
2022/01/22 10:54:10;;;;;;;;;;;21.80;43.50;;;;;;5137821;27;19923;-41
2022/01/22 10:56:39;;;;;;;;;;;21.80;43.50;;;;;;5137183;27;19927;-41
2022/01/22 10:59:07;;;;;;;;;;;21.80;43.50;;;;;;5116754;28;20391;-40
2022/01/22 11:01:43;;;;;;;;;;;21.80;43.50;;;;;;5128168;27;19923;-42
2022/01/22 11:04:14;;;;;;;;;;;21.80;43.50;;;;;;5137582;27;19980;-40
2022/01/22 11:06:49;;;;;;;;;;;21.80;43.40;;;;;;5137544;27;19924;-44
2022/01/22 11:09:36;;;;;;;;;;;21.80;43.50;;;;;;5137065;27;19924;-40
2022/01/22 11:12:04;;;;;;;;;;;21.80;43.40;;;;;;5136064;27;19939;-41
2022/01/22 11:14:36;;;;;;;;;;;21.80;43.40;;;;;;5136949;27;19923;-40
2022/01/22 11:17:03;;;;;;;;;;;21.80;43.40;;;;;;5136242;27;20294;-42
2022/01/22 11:19:32;;;;;;;;;;;21.80;43.40;;;;;;5136839;27;19982;-43
2022/01/22 11:22:02;;;;;;;;;;;21.80;43.50;;;;;;5136734;27;19923;-45
2022/01/22 11:24:32;;;;;;;;;;;21.80;43.40;;;;;;5136857;27;20394;-41
2022/01/22 11:27:01;;;;;;;;;;;21.80;43.40;;;;;;5136263;27;20022;-44
2022/01/22 11:29:30;;;;;;;;;;;21.90;43.50;;;;;;5136690;27;19974;-44
2022/01/22 11:31:59;;;;;;;;;;;21.90;43.50;;;;;;5135656;27;20004;-42
2022/01/22 11:34:31;;;;;;;;;;;21.90;43.50;;;;;;5136670;27;20386;-41
2022/01/22 11:37:17;;;;;;;;;;;21.90;43.50;;;;;;5136668;27;19985;-40
2022/01/22 11:39:44;;;;;;;;;;;21.90;43.50;;;;;;5136585;27;20014;-40
2022/01/22 11:42:11;;;;;;;;;;;21.90;43.50;;;;;;5135863;27;19982;-40
2022/01/22 11:44:50;;;;;;;;;;;21.90;43.50;;;;;;5136364;27;19930;-40
2022/01/22 11:47:22;;;;;;;;;;;21.90;43.50;;;;;;5118003;27;19931;-41
2022/01/22 11:50:09;;;;;;;;;;;21.90;43.40;;;;;;5136522;27;19927;-43
2022/01/22 11:52:39;;;;;;;;;;;21.90;43.40;;;;;;5136957;27;20271;-40
2022/01/22 11:55:09;;;;;;;;;;;21.90;43.40;;;;;;5136218;27;19923;-43
2022/01/22 11:57:36;;;;;;;;;;;21.90;43.40;;;;;;5135475;27;19971;-43
2022/01/22 12:00:22;;;;;;;;;;;22.00;43.40;;;;;;5118012;27;19971;-40
2022/01/22 12:03:07;;;;;;;;;;;22.00;43.30;;;;;;5117218;27;20336;-41
2022/01/22 12:05:54;;;;;;;;;;;22.00;43.30;;;;;;5115465;28;20014;-42
2022/01/22 12:08:22;;;;;;;;;;;22.00;43.30;;;;;;5115749;28;19930;-40
2022/01/22 12:16:36;;;;;;;;;;;22.00;43.20;;;;;;5134692;27;19927;-43
2022/01/22 12:19:08;;;;;;;;;;;22.00;43.20;;;;;;5135877;27;20297;-42
2022/01/22 12:21:37;;;;;;;;;;;22.10;43.20;;;;;;5118617;27;19923;-40
2022/01/22 12:24:06;;;;;;;;;;;22.10;43.20;;;;;;5135687;27;19923;-45
2022/01/22 12:26:37;;;;;;;;;;;22.10;43.20;;;;;;5135965;27;19962;-41
2022/01/22 12:29:23;;;;;;;;;;;22.10;43.20;;;;;;5122724;27;19980;-41
2022/01/22 12:32:14;;;;;;;;;;;22.10;43.10;;;;;;5121615;27;19962;-40
2022/01/22 12:34:54;;;;;;;;;;;22.10;43.10;;;;;;5135773;27;20325;-40
2022/01/22 12:37:22;;;;;;;;;;;22.20;43.10;;;;;;5135742;27;19934;-42
2022/01/22 12:39:52;;;;;;;;;;;22.20;43.10;;;;;;5135398;27;19963;-42
2022/01/22 12:42:34;;;;;;;;;;;22.20;43.00;;;;;;5135415;27;19923;-41
2022/01/22 12:45:06;;;;;;;;;;;22.20;43.00;;;;;;5134795;27;19930;-44
2022/01/22 12:47:35;;;;;;;;;;;22.20;42.90;;;;;;5134462;27;19977;-39
2022/01/22 12:50:05;;;;;;;;;;;22.30;43.00;;;;;;5135704;27;19924;-46
2022/01/22 12:52:33;;;;;;;;;;;22.30;42.90;;;;;;5135021;27;19966;-42
2022/01/22 12:55:13;;;;;;;;;;;22.30;42.90;;;;;;5135708;27;19953;-40
2022/01/22 12:57:57;;;;;;;;;;;22.30;42.90;;;;;;5134932;27;19930;-42
2022/01/22 13:00:24;;;;;;;;;;;22.30;43.00;;;;;;5135108;27;19931;-40
2022/01/22 13:02:56;;;;;;;;;;;22.30;42.90;;;;;;5133419;27;20426;-39
2022/01/22 13:05:24;;;;;;;;;;;22.30;42.90;;;;;;5135024;27;19930;-43
2022/01/22 13:07:55;;;;;;;;;;;22.30;43.00;;;;;;5117056;27;20351;-43
2022/01/22 13:10:27;;;;;;;;;;;22.30;43.00;;;;;;5134819;27;20374;-42
2022/01/22 13:12:56;;;;;;;;;;;22.30;43.00;;;;;;5134904;27;20363;-41
2022/01/22 13:15:23;;;;;;;;;;;22.30;43.00;;;;;;5134283;27;20014;-40
2022/01/22 13:17:57;;;;;;;;;;;22.30;43.10;;;;;;5133713;27;19971;-43
2022/01/22 13:20:25;;;;;;;;;;;22.30;43.10;;;;;;5134724;27;19924;-41
2022/01/22 13:22:52;;;;;;;;;;;22.20;43.00;;;;;;5134923;27;19923;-43
2022/01/22 13:25:23;;;;;;;;;;;22.30;43.10;;;;;;5135120;27;20018;-41
2022/01/22 13:28:06;;;;;;;;;;;22.20;43.10;;;;;;5134691;27;19924;-44
2022/01/22 13:30:38;;;;;;;;;;;22.20;43.10;;;;;;5115676;28;19938;-43
2022/01/22 13:33:32;;;;;;;;;;;22.20;43.10;;;;;;5125328;28;19927;-40
2022/01/22 13:39:34;;;;;;;;;;;22.20;43.20;;;;;;5134620;28;19952;-41
2022/01/22 13:49:50;;;;;;;;;;;22.20;43.30;;;;;;5134444;28;20374;-41
2022/01/22 13:52:18;;;;;;;;;;;22.20;43.30;;;;;;5134502;28;19924;-39
2022/01/22 13:54:46;;;;;;;;;;;22.20;43.30;;;;;;5134437;28;19945;-42
2022/01/22 13:57:17;;;;;;;;;;;22.20;43.30;;;;;;5134673;28;19930;-42
2022/01/22 13:59:46;;;;;;;;;;;22.20;43.40;;;;;;5133964;28;20357;-40
2022/01/22 14:04:59;;;;;;;;;;;22.20;43.40;;;;;;5134351;28;19930;-42
2022/01/22 14:07:44;;;;;;;;;;;22.20;43.40;;;;;;5134307;28;19924;-41
2022/01/22 14:10:12;;;;;;;;;;;22.20;43.40;;;;;;5134289;28;20019;-42
2022/01/22 14:12:50;;;;;;;;;;;22.20;43.40;;;;;;5135141;28;19978;-42
2022/01/22 14:15:26;;;;;;;;;;;22.20;43.40;;;;;;5133390;28;19923;-40
2022/01/22 14:17:57;;;;;;;;;;;22.20;43.40;;;;;;5133030;28;19924;-40
2022/01/22 14:20:26;;;;;;;;;;;22.20;43.40;;;;;;5134156;28;19923;-40
2022/01/22 14:23:01;;;;;;;;;;;22.20;43.40;;;;;;5134074;28;19923;-41
2022/01/22 14:25:29;;;;;;;;;;;22.20;43.50;;;;;;5134139;28;19976;-41
2022/01/22 14:28:07;;;;;;;;;;;22.20;43.50;;;;;;5134106;28;20026;-42
2022/01/22 14:30:45;;;;;;;;;;;22.20;43.60;;;;;;5133642;28;19976;-39
2022/01/22 14:33:14;;;;;;;;;;;22.20;43.60;;;;;;5133348;28;19924;-41
2022/01/22 14:35:42;;;;;;;;;;;22.20;43.60;;;;;;5134456;27;19927;-46
2022/01/22 14:38:35;;;;;;;;;;;22.20;43.60;;;;;;5138101;27;19930;-50
2022/01/22 14:44:29;;;;;;;;;;;22.20;43.70;;;;;;5137584;27;20396;-45
2022/01/22 14:46:57;;;;;;;;;;;22.20;43.70;;;;;;5119889;27;19930;-40
2022/01/22 14:49:26;;;;;;;;;;;22.20;43.70;;;;;;5121330;27;20298;-41
2022/01/22 14:51:54;;;;;;;;;;;22.20;43.70;;;;;;5116997;28;20355;-42
2022/01/22 14:54:22;;;;;;;;;;;22.20;43.70;;;;;;5116848;28;20026;-42
2022/01/22 14:56:49;;;;;;;;;;;22.20;43.70;;;;;;5116887;28;19924;-41
2022/01/22 14:59:17;;;;;;;;;;;22.20;43.70;;;;;;5117118;28;19924;-40
2022/01/22 15:01:44;;;;;;;;;;;22.20;43.70;;;;;;5118202;27;19924;-43
2022/01/22 15:04:11;;;;;;;;;;;22.20;43.70;;;;;;5136231;27;20018;-43
2022/01/22 15:06:54;;;;;;;;;;;22.20;43.70;;;;;;5137215;27;19930;-41
2022/01/22 15:09:22;;;;;;;;;;;22.20;43.70;;;;;;5137427;27;19936;-43
2022/01/22 15:11:49;;;;;;;;;;;22.20;43.70;;;;;;5137066;27;19923;-44
2022/01/22 15:14:16;;;;;;;;;;;22.20;43.70;;;;;;5119114;27;20344;-41
2022/01/22 15:16:51;;;;;;;;;;;22.20;43.60;;;;;;5136279;27;19952;-40
2022/01/22 15:19:22;;;;;;;;;;;22.20;43.60;;;;;;5136057;27;20355;-39
2022/01/22 15:21:50;;;;;;;;;;;22.20;43.60;;;;;;5136791;27;19923;-40
2022/01/22 15:24:18;;;;;;;;;;;22.20;43.60;;;;;;5137143;27;20321;-42
2022/01/22 15:26:45;;;;;;;;;;;22.20;43.60;;;;;;5136835;27;20370;-40
2022/01/22 15:29:16;;;;;;;;;;;22.20;43.60;;;;;;5137063;27;19984;-41
2022/01/22 15:34:43;;;;;;;;;;;22.20;43.70;;;;;;5122144;27;20447;-40
2022/01/22 15:37:11;;;;;;;;;;;22.20;43.70;;;;;;5136711;27;19928;-40
2022/01/22 15:39:38;;;;;;;;;;;22.20;43.70;;;;;;5136936;27;19923;-40
2022/01/22 15:42:05;;;;;;;;;;;22.20;43.70;;;;;;5136580;27;20390;-39
2022/01/22 15:44:33;;;;;;;;;;;22.20;43.70;;;;;;5136404;27;19927;-41
2022/01/22 15:47:00;;;;;;;;;;;22.20;43.70;;;;;;5135804;27;19927;-40
2022/01/22 15:49:27;;;;;;;;;;;22.20;43.70;;;;;;5135656;27;19924;-41
2022/01/22 15:51:57;;;;;;;;;;;22.20;43.70;;;;;;5136028;27;20371;-39
2022/01/22 15:54:25;;;;;;;;;;;22.20;43.70;;;;;;5136641;27;20336;-41
2022/01/22 15:56:52;;;;;;;;;;;22.20;43.80;;;;;;5136252;27;19930;-40
2022/01/22 15:59:21;;;;;;;;;;;22.20;43.80;;;;;;5136506;27;19976;-41
2022/01/22 16:01:49;;;;;;;;;;;22.20;44.40;;;;;;5135200;27;20067;-40
2022/01/22 16:04:17;;;;;;;;;;;22.20;43.80;;;;;;5135440;27;19923;-43
2022/01/22 16:07:01;;;;;;;;;;;22.20;43.90;;;;;;5136072;27;20030;-40
2022/01/22 16:09:30;;;;;;;;;;;22.20;43.90;;;;;;5136028;27;20436;-41
2022/01/22 16:12:10;;;;;;;;;;;22.20;43.80;;;;;;5136799;27;19923;-41
2022/01/22 16:14:47;;;;;;;;;;;22.20;43.90;;;;;;5136091;27;19924;-40
2022/01/22 16:17:16;;;;;;;;;;;22.20;43.90;;;;;;5135375;27;19928;-40
2022/01/22 16:19:43;;;;;;;;;;;22.20;43.90;;;;;;5134534;27;19924;-39
2022/01/22 16:22:10;;;;;;;;;;;22.20;43.90;;;;;;5135789;27;20329;-42
2022/01/22 16:24:38;;;;;;;;;;;22.20;43.90;;;;;;5117874;27;19928;-42
2022/01/22 16:27:05;;;;;;;;;;;22.20;43.90;;;;;;5135944;27;20014;-41
2022/01/22 16:29:32;;;;;;;;;;;22.10;43.80;;;;;;5135924;27;20413;-43
2022/01/22 16:32:00;;;;;;;;;;;22.10;43.90;;;;;;5134856;27;19969;-42
2022/01/22 16:34:27;;;;;;;;;;;22.10;43.90;;;;;;5134306;27;19963;-42
2022/01/22 16:36:54;;;;;;;;;;;22.10;43.90;;;;;;5135782;27;19967;-40